Webcam Flughafen St.Gallen-Altenrhein

Live-Bilder und Zeitraffer LSZR / ACH.

 

Live aus Altenrhein
LIVE
LSZR 280450Z AUTO VRB03KT 9999 SCT055 SCT085 08/04 Q1004
Zeitraffer heute
2020-01-28 00:13:59
LSZR 272250Z AUTO 11007KT 9999 FEW060 BKN070 06/03 Q1008